Time;durP1;ratioP1;P1;durP2;ratioP2;P2;SDS_P1;SDS_P2;PMS_P1;PMS_P2;Temp;Humidity;BMP_temperature;BMP_pressure;BME280_temperature;BME280_humidity;BME280_pressure;Samples;Min_cycle;Max_cycle;Signal;HPM_P1;HPM_P2
2022/12/04 00:01:17;;;;;;;9.13;7.43;;;6.10;89.70;;;;;;958335;147;27404;-79
2022/12/04 00:03:44;;;;;;;8.37;7.13;;;6.10;89.60;;;;;;959621;147;27423;-79
2022/12/04 00:06:10;;;;;;;8.10;7.13;;;6.10;89.60;;;;;;960170;147;27267;-79
2022/12/04 00:08:37;;;;;;;8.63;7.73;;;6.10;89.50;;;;;;945210;148;27487;-79
2022/12/04 00:11:04;;;;;;;8.87;7.27;;;6.10;89.50;;;;;;943673;150;27802;-79
2022/12/04 00:13:30;;;;;;;8.57;7.37;;;6.10;89.70;;;;;;944674;150;27440;-79
2022/12/04 00:15:58;;;;;;;8.90;7.90;;;6.10;89.60;;;;;;944031;150;27752;-78
2022/12/04 00:18:23;;;;;;;8.20;6.67;;;6.10;90.10;;;;;;941629;147;27301;-79
2022/12/04 00:20:50;;;;;;;8.20;7.33;;;6.10;89.50;;;;;;942020;150;27294;-78
2022/12/04 00:23:17;;;;;;;8.97;6.70;;;6.10;89.40;;;;;;944071;147;27352;-78
2022/12/04 00:25:47;;;;;;;9.43;7.40;;;6.10;89.30;;;;;;943999;147;27365;-78
2022/12/04 00:28:10;;;;;;;8.07;7.03;;;6.10;89.30;;;;;;943344;147;28169;-79
2022/12/04 00:30:36;;;;;;;8.10;7.30;;;6.10;89.40;;;;;;946521;150;27280;-79
2022/12/04 00:33:03;;;;;;;8.00;6.83;;;6.10;89.40;;;;;;943831;150;27424;-79
2022/12/04 00:35:29;;;;;;;8.40;7.50;;;6.10;89.40;;;;;;942796;150;27514;-79
2022/12/04 00:37:56;;;;;;;8.30;7.30;;;6.10;89.40;;;;;;944603;150;27376;-79
2022/12/04 00:40:23;;;;;;;9.13;7.67;;;6.10;89.30;;;;;;944091;147;28333;-79
2022/12/04 00:42:49;;;;;;;7.20;6.50;;;6.10;89.40;;;;;;944328;150;27306;-79
2022/12/04 00:45:16;;;;;;;8.30;7.27;;;6.10;89.40;;;;;;941567;147;28000;-78
2022/12/04 00:47:42;;;;;;;8.93;7.57;;;6.10;89.40;;;;;;942251;150;27341;-79
2022/12/04 00:50:09;;;;;;;8.40;7.40;;;6.00;90.10;;;;;;944501;147;27445;-79
2022/12/04 00:52:36;;;;;;;8.20;7.20;;;6.10;89.70;;;;;;943908;147;27339;-79
2022/12/04 00:55:02;;;;;;;10.83;8.33;;;6.10;89.70;;;;;;944548;147;27315;-79
2022/12/04 00:57:29;;;;;;;8.70;7.57;;;6.10;89.80;;;;;;942587;147;27330;-79
2022/12/04 00:59:55;;;;;;;7.83;7.03;;;6.10;89.80;;;;;;944102;150;27375;-79
2022/12/04 01:02:22;;;;;;;8.37;7.17;;;6.10;89.90;;;;;;943104;149;27365;-78
2022/12/04 01:04:49;;;;;;;8.60;7.53;;;6.10;90.20;;;;;;945144;150;27332;-80
2022/12/04 01:07:15;;;;;;;8.20;7.40;;;6.10;89.90;;;;;;946157;147;27346;-79
2022/12/04 01:09:42;;;;;;;8.93;7.10;;;6.10;89.70;;;;;;948464;146;27326;-79
2022/12/04 01:12:08;;;;;;;8.80;7.90;;;6.10;89.50;;;;;;951528;149;27288;-79
2022/12/04 01:14:35;;;;;;;7.93;6.73;;;6.10;89.40;;;;;;948941;149;27435;-78
2022/12/04 01:17:01;;;;;;;8.37;7.23;;;6.10;89.50;;;;;;950628;149;27342;-78
2022/12/04 01:19:28;;;;;;;8.33;6.77;;;6.10;89.40;;;;;;950591;149;27305;-78
2022/12/04 01:21:55;;;;;;;8.23;7.40;;;6.10;89.40;;;;;;949247;149;27377;-79
2022/12/04 01:24:21;;;;;;;8.20;7.13;;;6.10;90.00;;;;;;948412;146;27331;-79
2022/12/04 01:26:48;;;;;;;8.70;7.87;;;6.10;89.40;;;;;;947598;149;27436;-79
2022/12/04 01:29:14;;;;;;;8.07;7.27;;;6.10;89.40;;;;;;950562;149;27364;-79
2022/12/04 01:31:41;;;;;;;8.70;7.20;;;6.10;89.50;;;;;;950609;149;27284;-79
2022/12/04 01:34:08;;;;;;;9.13;7.93;;;6.10;89.50;;;;;;950667;149;27294;-79
2022/12/04 01:36:34;;;;;;;8.63;7.73;;;6.10;89.60;;;;;;948154;149;27392;-79
2022/12/04 01:39:01;;;;;;;8.83;7.47;;;6.10;89.50;;;;;;951505;149;27367;-79
2022/12/04 01:41:27;;;;;;;7.90;7.10;;;6.10;89.40;;;;;;948063;148;27906;-79
2022/12/04 01:44:06;;;;;;;8.83;7.53;;;6.10;89.60;;;;;;950631;149;27336;-79
2022/12/04 01:46:32;;;;;;;8.70;7.77;;;6.10;89.60;;;;;;949412;149;27364;-81
2022/12/04 01:48:59;;;;;;;8.70;6.63;;;6.10;89.70;;;;;;949875;148;27270;-81
2022/12/04 01:51:28;;;;;;;9.23;7.90;;;6.10;90.20;;;;;;950344;149;27420;-81
2022/12/04 01:53:55;;;;;;;8.57;7.50;;;6.00;89.60;;;;;;950821;149;27452;-81
2022/12/04 01:56:22;;;;;;;8.57;7.67;;;6.10;89.60;;;;;;947702;149;27386;-81
2022/12/04 01:58:48;;;;;;;8.97;8.03;;;6.10;89.60;;;;;;950177;149;27442;-81
2022/12/04 02:01:15;;;;;;;7.90;7.10;;;6.10;89.60;;;;;;947542;149;27382;-81
2022/12/04 02:03:41;;;;;;;8.47;7.60;;;6.00;89.60;;;;;;951047;149;27339;-81
2022/12/04 02:06:08;;;;;;;8.67;7.47;;;6.10;90.10;;;;;;948817;149;27503;-81
2022/12/04 02:08:35;;;;;;;9.00;7.70;;;6.10;89.70;;;;;;950168;146;27344;-80
2022/12/04 02:11:04;;;;;;;7.80;7.00;;;6.10;89.70;;;;;;955826;147;27337;-81
2022/12/04 02:13:48;;;;;;;8.10;7.30;;;6.10;89.60;;;;;;958884;145;27310;-81
2022/12/04 02:16:33;;;;;;;8.70;7.73;;;6.10;89.60;;;;;;930815;147;27777;-81
2022/12/04 02:19:02;;;;;;;9.07;7.87;;;6.10;89.70;;;;;;959559;147;27290;-81
2022/12/04 02:21:41;;;;;;;9.23;7.77;;;6.00;89.60;;;;;;959970;147;27448;-80
2022/12/04 02:24:26;;;;;;;8.43;6.97;;;6.10;89.40;;;;;;958682;147;27303;-81
2022/12/04 02:26:56;;;;;;;7.47;6.77;;;6.00;89.40;;;;;;959935;145;27387;-81
2022/12/04 02:29:28;;;;;;;7.73;6.37;;;6.10;89.50;;;;;;959083;147;27389;-80
2022/12/04 02:32:15;;;;;;;7.70;6.90;;;6.00;89.40;;;;;;942894;147;27437;-80
2022/12/04 02:35:10;;;;;;;7.37;6.43;;;6.00;89.40;;;;;;960295;147;27313;-80
2022/12/04 02:37:36;;;;;;;7.00;6.20;;;6.00;89.40;;;;;;961149;147;27328;-80
2022/12/04 02:40:03;;;;;;;7.43;6.30;;;6.00;88.50;;;;;;957871;147;27395;-80
2022/12/04 02:42:32;;;;;;;8.30;6.93;;;6.00;89.20;;;;;;959493;147;27341;-80
2022/12/04 02:45:02;;;;;;;7.83;6.73;;;6.00;89.30;;;;;;959191;147;27419;-80
2022/12/04 02:47:28;;;;;;;6.70;5.93;;;6.00;89.30;;;;;;957285;147;27276;-80
2022/12/04 02:49:58;;;;;;;7.37;6.57;;;6.00;89.40;;;;;;961969;147;27289;-79
2022/12/04 02:52:27;;;;;;;7.53;6.70;;;6.00;89.50;;;;;;963359;147;27290;-79
2022/12/04 02:54:56;;;;;;;7.17;6.47;;;6.00;89.60;;;;;;960755;147;27383;-79
2022/12/04 02:57:23;;;;;;;7.00;6.30;;;6.00;89.60;;;;;;960923;147;27312;-79
2022/12/04 02:59:49;;;;;;;7.30;6.13;;;6.00;89.60;;;;;;960512;147;27360;-79
2022/12/04 03:02:19;;;;;;;7.53;5.93;;;6.00;89.60;;;;;;959550;147;27366;-79
2022/12/04 03:04:46;;;;;;;7.13;6.03;;;6.00;89.60;;;;;;959803;145;27362;-79
2022/12/04 03:07:12;;;;;;;7.60;6.40;;;6.10;89.60;;;;;;958622;147;27334;-79
2022/12/04 03:09:39;;;;;;;7.03;6.33;;;6.10;89.70;;;;;;959240;145;27374;-79
2022/12/04 03:12:05;;;;;;;7.23;6.43;;;6.10;89.70;;;;;;959022;147;27397;-79
2022/12/04 03:14:32;;;;;;;7.33;6.43;;;6.10;89.70;;;;;;956803;147;27257;-79
2022/12/04 03:16:59;;;;;;;6.87;6.20;;;6.10;89.70;;;;;;960187;145;27367;-79
2022/12/04 03:19:25;;;;;;;7.83;6.70;;;6.10;89.70;;;;;;959052;147;27429;-79
2022/12/04 03:21:52;;;;;;;6.90;6.20;;;6.10;89.70;;;;;;957898;147;27264;-78
2022/12/04 03:24:33;;;;;;;6.87;6.13;;;6.10;89.60;;;;;;957523;147;27326;-78
2022/12/04 03:27:19;;;;;;;6.80;6.07;;;6.10;89.60;;;;;;958724;147;27309;-78
2022/12/04 03:29:51;;;;;;;9.00;7.27;;;6.10;89.60;;;;;;958464;147;27308;-78
2022/12/04 03:32:33;;;;;;;8.57;6.67;;;6.10;89.60;;;;;;957891;147;27359;-77
2022/12/04 03:35:05;;;;;;;8.03;6.60;;;6.10;89.60;;;;;;958624;147;27854;-78
2022/12/04 03:37:34;;;;;;;7.80;6.93;;;6.10;89.60;;;;;;959000;147;27393;-78
2022/12/04 03:40:00;;;;;;;8.00;6.40;;;6.10;89.30;;;;;;960500;147;27276;-77
2022/12/04 03:42:27;;;;;;;6.73;5.93;;;6.10;89.40;;;;;;958861;147;27304;-77
2022/12/04 03:44:54;;;;;;;7.33;6.60;;;6.10;89.40;;;;;;959287;147;27349;-77
2022/12/04 03:47:35;;;;;;;7.07;6.30;;;6.10;89.60;;;;;;959121;147;27355;-78
2022/12/04 03:50:07;;;;;;;6.60;6.00;;;6.10;89.60;;;;;;960900;147;27437;-77
2022/12/04 03:52:37;;;;;;;7.73;6.37;;;6.10;89.70;;;;;;959907;147;27634;-78
2022/12/04 03:55:21;;;;;;;8.20;6.83;;;6.10;89.90;;;;;;956085;147;27287;-78
2022/12/04 03:57:47;;;;;;;7.57;6.77;;;6.10;89.90;;;;;;959446;147;27338;-78
2022/12/04 04:00:17;;;;;;;7.47;6.03;;;6.10;90.00;;;;;;959775;147;27640;-78
2022/12/04 04:02:46;;;;;;;7.90;6.67;;;6.10;90.00;;;;;;957641;147;27370;-78
2022/12/04 04:05:13;;;;;;;8.43;6.73;;;6.10;90.00;;;;;;948796;147;27298;-78
2022/12/04 04:07:39;;;;;;;7.33;6.23;;;6.10;90.10;;;;;;959590;147;27339;-78
2022/12/04 04:10:06;;;;;;;6.87;5.67;;;6.20;90.20;;;;;;958701;148;27436;-78
2022/12/04 04:12:32;;;;;;;7.07;6.37;;;6.20;90.20;;;;;;951282;148;27966;-78
2022/12/04 04:26:10;;;;;;;7.43;6.30;;;6.20;90.10;;;;;;952030;149;27369;-78
2022/12/04 04:28:36;;;;;;;11.00;6.70;;;6.20;90.00;;;;;;950302;149;27819;-78
2022/12/04 04:31:24;;;;;;;7.13;6.23;;;6.20;90.00;;;;;;950326;149;27327;-78
2022/12/04 04:34:19;;;;;;;6.90;5.83;;;6.20;90.00;;;;;;947654;149;28565;-78
2022/12/04 04:37:00;;;;;;;7.70;6.10;;;6.20;90.00;;;;;;949002;149;27344;-78
2022/12/04 04:39:44;;;;;;;7.70;6.90;;;6.20;90.00;;;;;;948452;148;27381;-78
2022/12/04 04:42:26;;;;;;;6.60;5.73;;;6.20;90.00;;;;;;950274;149;27336;-78
2022/12/04 04:45:07;;;;;;;7.37;5.90;;;6.20;90.10;;;;;;948935;149;27408;-78
2022/12/04 04:47:34;;;;;;;7.30;6.23;;;6.10;90.10;;;;;;950395;146;27383;-78
2022/12/04 04:50:01;;;;;;;6.97;6.20;;;6.10;90.10;;;;;;949854;149;27336;-78
2022/12/04 04:52:27;;;;;;;7.33;5.97;;;6.10;90.20;;;;;;949916;149;27310;-78
2022/12/04 04:54:54;;;;;;;7.70;5.63;;;6.10;90.10;;;;;;950321;149;27301;-78
2022/12/04 04:57:29;;;;;;;6.47;5.80;;;6.10;90.10;;;;;;949895;148;27380;-78
2022/12/04 04:59:56;;;;;;;6.93;5.67;;;6.20;90.20;;;;;;947371;149;27359;-78
2022/12/04 05:02:23;;;;;;;7.23;5.97;;;6.20;90.20;;;;;;949516;149;27417;-78
2022/12/04 05:04:49;;;;;;;6.83;5.87;;;6.20;90.30;;;;;;948736;149;27292;-78
2022/12/04 05:07:16;;;;;;;6.93;5.53;;;6.20;90.30;;;;;;948483;146;27419;-78
2022/12/04 05:09:42;;;;;;;8.73;6.83;;;6.20;90.30;;;;;;948778;149;27311;-78
2022/12/04 05:12:09;;;;;;;6.77;5.87;;;6.10;90.30;;;;;;948731;149;27380;-78
2022/12/04 05:14:35;;;;;;;7.00;6.30;;;6.20;90.30;;;;;;944514;150;27428;-78
2022/12/04 05:17:02;;;;;;;8.07;6.70;;;6.20;90.40;;;;;;943819;150;27369;-78
2022/12/04 05:22:13;;;;;;;8.33;7.40;;;6.20;90.40;;;;;;942145;150;27350;-78
2022/12/04 05:24:40;;;;;;;6.70;5.93;;;6.20;90.40;;;;;;943014;150;27285;-78
2022/12/04 05:27:06;;;;;;;8.20;6.83;;;6.20;90.40;;;;;;942680;150;27393;-78
2022/12/04 05:29:33;;;;;;;7.73;6.70;;;6.20;90.40;;;;;;944939;150;27317;-78
2022/12/04 05:32:00;;;;;;;8.57;6.50;;;6.20;90.40;;;;;;944945;149;27735;-78
2022/12/04 05:34:26;;;;;;;8.90;6.80;;;6.20;90.40;;;;;;944072;147;27356;-78
2022/12/04 05:36:53;;;;;;;8.87;6.73;;;6.20;90.80;;;;;;943736;150;27443;-78
2022/12/04 05:39:19;;;;;;;7.47;6.70;;;6.20;90.50;;;;;;941680;148;27340;-78
2022/12/04 05:41:46;;;;;;;10.33;7.17;;;6.20;90.50;;;;;;942168;150;27467;-78
2022/12/04 05:44:13;;;;;;;9.50;7.13;;;6.20;90.50;;;;;;943569;150;27817;-78
2022/12/04 05:46:39;;;;;;;9.20;6.90;;;6.20;90.50;;;;;;942714;150;27422;-78
2022/12/04 05:49:06;;;;;;;8.03;5.97;;;6.20;90.50;;;;;;944814;150;27296;-78
2022/12/04 05:51:32;;;;;;;7.53;6.73;;;6.20;90.50;;;;;;943107;150;27326;-78
2022/12/04 05:53:59;;;;;;;9.17;6.83;;;6.20;90.50;;;;;;942597;150;27458;-78
2022/12/04 05:56:25;;;;;;;9.83;7.37;;;6.20;90.50;;;;;;946165;150;27317;-78
2022/12/04 05:58:52;;;;;;;9.43;7.40;;;6.20;90.50;;;;;;944337;150;27329;-78
2022/12/04 06:01:19;;;;;;;9.70;6.57;;;6.20;90.60;;;;;;942242;150;27343;-78
2022/12/04 06:03:45;;;;;;;7.97;7.17;;;6.20;90.60;;;;;;941903;150;27287;-78
2022/12/04 06:06:12;;;;;;;7.83;7.03;;;6.20;90.60;;;;;;942023;150;27404;-78
2022/12/04 06:08:38;;;;;;;9.50;7.87;;;6.20;90.60;;;;;;941187;150;27436;-78
2022/12/04 06:11:14;;;;;;;8.67;6.97;;;6.20;90.60;;;;;;944211;150;27334;-78
2022/12/04 06:13:41;;;;;;;9.53;7.33;;;6.20;90.60;;;;;;944335;149;27404;-78
2022/12/04 06:16:13;;;;;;;10.57;7.70;;;6.20;90.60;;;;;;955903;147;27665;-78
2022/12/04 06:18:39;;;;;;;10.83;8.27;;;6.20;90.60;;;;;;957763;147;27365;-78
2022/12/04 06:21:06;;;;;;;10.43;8.40;;;6.20;90.60;;;;;;960387;147;27398;-78
2022/12/04 06:23:33;;;;;;;11.90;8.80;;;6.20;90.70;;;;;;959707;147;27323;-78
2022/12/04 06:26:05;;;;;;;12.07;9.07;;;6.10;90.60;;;;;;959141;147;27289;-78
2022/12/04 06:28:31;;;;;;;13.13;9.37;;;6.10;90.60;;;;;;958406;147;27337;-78
2022/12/04 06:31:06;;;;;;;11.33;8.60;;;6.20;90.60;;;;;;959116;147;27737;-78
2022/12/04 06:33:33;;;;;;;12.73;9.20;;;6.10;90.50;;;;;;960297;147;27309;-78
2022/12/04 06:36:06;;;;;;;10.97;8.30;;;6.10;90.50;;;;;;960820;147;27299;-78
2022/12/04 06:38:32;;;;;;;13.93;9.67;;;6.10;90.50;;;;;;961126;147;27843;-78
2022/12/04 06:40:59;;;;;;;14.30;9.30;;;6.10;90.50;;;;;;961596;147;27351;-78
2022/12/04 06:43:25;;;;;;;13.03;9.40;;;6.10;90.40;;;;;;960408;147;28324;-78
2022/12/04 06:46:07;;;;;;;13.13;10.10;;;6.00;90.40;;;;;;959899;147;27274;-78
2022/12/04 06:48:33;;;;;;;12.93;9.37;;;6.00;90.40;;;;;;959222;147;27331;-78
2022/12/04 06:51:05;;;;;;;15.07;10.00;;;6.00;90.30;;;;;;959938;147;27374;-78
2022/12/04 06:53:32;;;;;;;12.43;9.30;;;5.90;90.30;;;;;;958631;147;27329;-78
2022/12/04 06:55:59;;;;;;;14.07;9.37;;;5.90;90.40;;;;;;959595;147;27242;-78
2022/12/04 06:58:25;;;;;;;11.60;9.17;;;5.90;90.50;;;;;;958389;147;27365;-78
2022/12/04 07:00:52;;;;;;;14.67;10.40;;;5.90;90.60;;;;;;959737;147;27300;-78
2022/12/04 07:03:18;;;;;;;13.43;10.23;;;5.90;90.60;;;;;;960647;147;27348;-78
2022/12/04 07:05:45;;;;;;;14.20;10.17;;;5.90;90.70;;;;;;959179;147;27353;-78
2022/12/04 07:08:12;;;;;;;13.50;9.43;;;5.80;90.60;;;;;;958504;147;27890;-78
2022/12/04 07:10:38;;;;;;;14.37;9.23;;;5.80;91.00;;;;;;961348;147;27339;-78
2022/12/04 07:13:05;;;;;;;12.03;8.57;;;5.80;90.70;;;;;;960620;145;27348;-78
2022/12/04 07:15:31;;;;;;;13.43;9.67;;;5.80;90.80;;;;;;954971;147;27482;-78
2022/12/04 07:17:58;;;;;;;13.13;9.77;;;5.80;90.80;;;;;;944780;150;27439;-78
2022/12/04 07:20:24;;;;;;;11.57;9.50;;;5.80;90.80;;;;;;945378;150;27338;-78
2022/12/04 07:22:51;;;;;;;12.77;10.10;;;5.80;90.80;;;;;;944470;147;27342;-78
2022/12/04 07:25:18;;;;;;;12.13;9.43;;;5.80;90.80;;;;;;943954;147;27855;-78
2022/12/04 07:27:44;;;;;;;13.53;9.73;;;5.80;90.80;;;;;;944478;150;27408;-78
2022/12/04 07:30:11;;;;;;;12.67;10.00;;;5.80;90.90;;;;;;944368;150;27357;-78
2022/12/04 07:32:37;;;;;;;14.07;10.40;;;5.80;90.90;;;;;;943334;150;27445;-78
2022/12/04 07:35:04;;;;;;;13.37;10.50;;;5.80;91.00;;;;;;944971;147;27281;-78
2022/12/04 07:37:31;;;;;;;14.40;10.57;;;5.70;91.00;;;;;;944015;148;27350;-77
2022/12/04 07:39:57;;;;;;;13.10;10.17;;;5.70;91.00;;;;;;942473;150;27298;-78
2022/12/04 07:42:24;;;;;;;12.00;9.27;;;5.70;91.00;;;;;;946111;150;27380;-78
2022/12/04 07:44:50;;;;;;;13.20;10.20;;;5.70;91.10;;;;;;943470;148;27761;-77
2022/12/04 07:47:17;;;;;;;13.43;10.37;;;5.70;91.10;;;;;;944055;148;27315;-78
2022/12/04 07:49:43;;;;;;;14.03;10.70;;;5.70;91.20;;;;;;941793;150;27289;-78
2022/12/04 07:52:10;;;;;;;14.80;10.23;;;5.70;91.20;;;;;;946190;150;27300;-78
2022/12/04 07:54:37;;;;;;;14.77;10.63;;;5.70;91.30;;;;;;942889;147;27377;-78
2022/12/04 07:57:03;;;;;;;13.77;9.80;;;5.70;91.30;;;;;;943465;150;27353;-78
2022/12/04 07:59:30;;;;;;;13.07;9.70;;;5.70;91.40;;;;;;943036;148;27302;-78
2022/12/04 08:01:56;;;;;;;14.03;10.20;;;5.70;91.80;;;;;;943834;149;27433;-78
2022/12/04 08:04:23;;;;;;;14.40;10.10;;;5.80;91.50;;;;;;942638;147;27336;-77
2022/12/04 08:06:50;;;;;;;15.17;10.87;;;5.80;91.60;;;;;;944074;147;27400;-77
2022/12/04 08:09:16;;;;;;;14.73;10.07;;;5.80;91.70;;;;;;941995;147;27924;-78
2022/12/04 08:11:43;;;;;;;13.33;10.70;;;5.80;91.70;;;;;;944745;150;27367;-78
2022/12/04 08:14:09;;;;;;;13.10;9.83;;;5.80;91.70;;;;;;943060;150;27881;-78
2022/12/04 08:16:36;;;;;;;13.00;9.70;;;5.80;91.70;;;;;;945004;147;27383;-78
2022/12/04 08:19:03;;;;;;;12.93;9.40;;;5.90;91.70;;;;;;942095;150;27411;-78
2022/12/04 08:21:29;;;;;;;13.30;9.60;;;5.90;91.70;;;;;;944698;147;27500;-78
2022/12/04 08:23:56;;;;;;;12.67;9.00;;;5.90;91.80;;;;;;943182;150;27324;-77
2022/12/04 08:26:22;;;;;;;14.67;10.03;;;5.90;91.70;;;;;;941664;147;27305;-78
2022/12/04 08:28:49;;;;;;;14.53;9.27;;;6.00;91.70;;;;;;944384;149;27389;-78
2022/12/04 08:31:15;;;;;;;11.93;9.33;;;6.00;91.70;;;;;;941916;150;27313;-78
2022/12/04 08:33:42;;;;;;;15.03;10.40;;;6.00;91.70;;;;;;943098;150;27309;-78
2022/12/04 08:36:09;;;;;;;15.13;11.20;;;6.00;91.50;;;;;;944187;147;27381;-78
2022/12/04 08:38:35;;;;;;;13.50;10.03;;;6.00;91.50;;;;;;943131;147;27336;-78
2022/12/04 08:41:02;;;;;;;16.97;10.77;;;6.00;91.60;;;;;;943485;150;27627;-78
2022/12/04 08:43:28;;;;;;;11.47;9.90;;;6.00;91.60;;;;;;942740;150;27333;-78
2022/12/04 08:46:01;;;;;;;15.63;10.47;;;6.00;91.90;;;;;;945186;149;27333;-78
2022/12/04 08:48:27;;;;;;;15.10;10.37;;;6.00;91.60;;;;;;943504;147;27372;-78
2022/12/04 08:50:54;;;;;;;11.80;9.37;;;6.00;91.70;;;;;;940931;150;27342;-78
2022/12/04 08:53:20;;;;;;;13.73;9.60;;;6.10;91.70;;;;;;942123;149;27354;-78
2022/12/04 08:55:47;;;;;;;12.80;9.67;;;6.00;91.60;;;;;;943408;150;27304;-78
2022/12/04 08:58:13;;;;;;;13.73;10.07;;;6.10;91.60;;;;;;942523;150;27375;-78
2022/12/04 09:00:40;;;;;;;13.37;10.10;;;6.10;91.60;;;;;;945145;150;27361;-78
2022/12/04 09:03:07;;;;;;;13.90;9.93;;;6.10;91.50;;;;;;943536;150;27384;-78
2022/12/04 09:05:33;;;;;;;15.53;10.07;;;6.10;91.50;;;;;;942809;149;27393;-78
2022/12/04 09:08:00;;;;;;;13.43;9.70;;;6.10;91.60;;;;;;942618;147;27344;-78
2022/12/04 09:10:26;;;;;;;14.47;10.23;;;6.10;91.70;;;;;;943378;147;27313;-78
2022/12/04 09:12:53;;;;;;;15.13;10.03;;;6.10;91.70;;;;;;943532;149;27343;-77
2022/12/04 09:15:20;;;;;;;14.00;9.67;;;6.20;91.80;;;;;;940872;150;27350;-78
2022/12/04 09:17:46;;;;;;;14.47;10.20;;;6.20;91.90;;;;;;943285;147;27420;-78
2022/12/04 09:20:13;;;;;;;12.57;9.23;;;6.20;91.90;;;;;;944391;149;27385;-78
2022/12/04 09:22:39;;;;;;;14.23;10.13;;;6.30;92.00;;;;;;943582;147;27308;-78
2022/12/04 09:25:06;;;;;;;14.17;10.40;;;6.30;92.00;;;;;;943814;147;27329;-78
2022/12/04 09:27:36;;;;;;;16.10;10.03;;;6.30;92.00;;;;;;942792;150;27410;-78
2022/12/04 09:30:02;;;;;;;14.23;10.03;;;6.40;91.90;;;;;;944065;148;27418;-78
2022/12/04 09:32:29;;;;;;;14.20;10.63;;;6.40;91.90;;;;;;945111;147;27410;-78
2022/12/04 09:34:55;;;;;;;15.27;10.17;;;6.40;91.90;;;;;;944023;148;27277;-78
2022/12/04 09:37:22;;;;;;;14.57;10.97;;;6.40;91.80;;;;;;944116;150;27356;-78
2022/12/04 09:39:48;;;;;;;15.63;10.67;;;6.50;91.80;;;;;;941653;150;27351;-78
2022/12/04 09:42:15;;;;;;;15.97;10.87;;;6.50;91.70;;;;;;944645;150;27350;-78
2022/12/04 09:45:03;;;;;;;18.57;9.80;;;6.50;91.70;;;;;;944291;147;27337;-78
2022/12/04 09:47:38;;;;;;;13.43;9.93;;;6.50;91.60;;;;;;941899;150;27450;-78
2022/12/04 09:50:20;;;;;;;14.83;10.43;;;6.60;91.60;;;;;;942955;149;27465;-78
2022/12/04 09:53:02;;;;;;;11.83;8.47;;;6.60;91.60;;;;;;944271;148;27486;-78
2022/12/04 09:55:28;;;;;;;14.47;11.20;;;6.60;91.60;;;;;;944298;147;27465;-78
2022/12/04 09:57:55;;;;;;;15.33;11.07;;;6.60;91.50;;;;;;943904;147;27332;-78
2022/12/04 10:00:21;;;;;;;12.07;10.17;;;6.60;91.60;;;;;;940534;147;27418;-78
2022/12/04 10:02:51;;;;;;;16.20;10.90;;;6.60;91.70;;;;;;945756;147;27834;-79
2022/12/04 10:05:18;;;;;;;20.10;10.77;;;6.60;91.70;;;;;;942876;147;27360;-79
2022/12/04 10:07:47;;;;;;;15.97;11.40;;;6.70;91.70;;;;;;941931;149;27336;-79
2022/12/04 10:10:19;;;;;;;13.27;9.97;;;6.70;91.70;;;;;;943626;150;27402;-78
2022/12/04 10:12:54;;;;;;;14.50;9.73;;;6.70;91.60;;;;;;941504;150;27349;-78
2022/12/04 10:15:40;;;;;;;13.63;10.53;;;6.80;91.90;;;;;;941892;150;27458;-78
2022/12/04 10:18:25;;;;;;;13.37;10.03;;;6.70;91.40;;;;;;943308;147;27413;-78
2022/12/04 10:21:10;;;;;;;14.67;10.67;;;6.70;91.40;;;;;;944391;150;27341;-78
2022/12/04 10:23:36;;;;;;;14.17;11.80;;;6.70;91.40;;;;;;944644;149;27347;-78
2022/12/04 10:26:03;;;;;;;14.30;11.20;;;6.70;91.40;;;;;;940751;150;27279;-78
2022/12/04 10:28:35;;;;;;;12.77;9.43;;;6.70;91.40;;;;;;942590;150;27332;-78
2022/12/04 10:31:02;;;;;;;15.10;10.00;;;6.70;91.50;;;;;;945524;148;27315;-79
2022/12/04 10:33:40;;;;;;;13.53;10.13;;;6.80;91.50;;;;;;942704;150;27409;-78
2022/12/04 10:36:07;;;;;;;11.73;9.60;;;6.80;91.60;;;;;;942091;149;27465;-78
2022/12/04 10:38:42;;;;;;;13.43;9.47;;;6.80;91.60;;;;;;940117;150;27328;-78
2022/12/04 10:41:14;;;;;;;13.17;10.03;;;6.80;91.60;;;;;;931385;147;27388;-78
2022/12/04 10:43:44;;;;;;;12.93;9.53;;;6.80;91.50;;;;;;942677;147;27325;-78
2022/12/04 10:46:28;;;;;;;11.73;8.53;;;6.80;91.50;;;;;;942761;150;27372;-78
2022/12/04 10:48:57;;;;;;;12.10;9.60;;;6.80;91.50;;;;;;943940;150;27309;-78
2022/12/04 10:51:24;;;;;;;13.40;9.97;;;6.90;91.50;;;;;;944493;149;27415;-78
2022/12/04 10:53:50;;;;;;;14.80;11.07;;;6.90;91.50;;;;;;943542;148;27331;-78
2022/12/04 10:56:20;;;;;;;14.50;10.80;;;6.90;91.50;;;;;;943250;147;27325;-78
2022/12/04 10:59:02;;;;;;;12.10;9.60;;;6.90;91.50;;;;;;941913;149;27403;-78
2022/12/04 11:01:28;;;;;;;12.90;10.20;;;6.90;91.40;;;;;;942635;150;27391;-78
2022/12/04 11:04:13;;;;;;;11.50;9.87;;;6.90;91.30;;;;;;941815;149;27403;-78
2022/12/04 11:06:40;;;;;;;12.47;9.87;;;6.90;91.30;;;;;;944084;147;27298;-78
2022/12/04 11:09:06;;;;;;;14.27;9.77;;;6.90;91.30;;;;;;943918;150;27349;-78
2022/12/04 11:11:33;;;;;;;12.63;9.57;;;6.90;91.40;;;;;;942250;150;27432;-78
2022/12/04 11:14:11;;;;;;;18.37;13.00;;;6.90;91.50;;;;;;943512;149;27269;-78
2022/12/04 11:16:38;;;;;;;12.63;9.93;;;6.90;91.60;;;;;;932674;148;27422;-78
2022/12/04 11:19:04;;;;;;;11.67;8.93;;;7.00;91.70;;;;;;943223;148;27372;-78
2022/12/04 11:21:31;;;;;;;12.13;9.47;;;7.00;91.70;;;;;;955417;145;27436;-78
2022/12/04 11:23:58;;;;;;;12.27;9.10;;;7.10;91.70;;;;;;939086;149;27820;-78
2022/12/04 11:26:33;;;;;;;13.73;10.27;;;7.10;91.60;;;;;;956962;145;27304;-78
2022/12/04 11:29:04;;;;;;;13.53;10.37;;;7.20;91.60;;;;;;953267;147;27268;-78
2022/12/04 11:31:26;;;;;;;13.07;9.30;;;7.20;91.40;;;;;;954079;145;27371;-78
2022/12/04 11:34:02;;;;;;;12.77;9.47;;;7.20;91.30;;;;;;953331;146;27435;-78
2022/12/04 11:36:29;;;;;;;12.80;9.93;;;7.20;91.20;;;;;;953625;146;27364;-78
2022/12/04 11:39:11;;;;;;;10.27;8.63;;;7.20;91.30;;;;;;953422;146;27433;-78
2022/12/04 11:41:37;;;;;;;12.70;9.60;;;7.20;91.30;;;;;;955491;146;27291;-78
2022/12/04 11:44:07;;;;;;;13.37;9.27;;;7.30;91.20;;;;;;957063;145;27324;-78
2022/12/04 11:46:33;;;;;;;12.77;9.27;;;7.30;91.20;;;;;;953777;146;27809;-78
2022/12/04 11:49:02;;;;;;;11.13;8.93;;;7.30;91.20;;;;;;954486;146;27396;-78
2022/12/04 11:51:44;;;;;;;11.97;9.43;;;7.30;91.20;;;;;;954332;146;27428;-78
2022/12/04 11:54:17;;;;;;;11.73;9.57;;;7.40;91.20;;;;;;954207;146;28279;-77
2022/12/04 11:56:49;;;;;;;11.27;9.13;;;7.40;91.10;;;;;;951456;145;27308;-77
2022/12/04 11:59:34;;;;;;;11.23;8.43;;;7.40;91.10;;;;;;954165;146;27882;-77
2022/12/04 12:02:39;;;;;;;11.17;9.00;;;7.40;90.90;;;;;;953568;145;27275;-77
2022/12/04 12:05:23;;;;;;;11.20;8.37;;;7.50;90.90;;;;;;954861;146;27361;-77
2022/12/04 12:08:23;;;;;;;9.90;8.43;;;7.50;90.80;;;;;;953201;146;27272;-77
2022/12/04 12:10:52;;;;;;;11.77;8.63;;;7.50;90.80;;;;;;952619;146;27315;-77
2022/12/04 12:13:19;;;;;;;11.27;8.17;;;7.50;90.70;;;;;;952077;146;27322;-77
2022/12/04 12:16:04;;;;;;;12.13;8.50;;;7.50;90.70;;;;;;955460;146;27253;-78
2022/12/04 12:18:39;;;;;;;10.33;8.77;;;7.50;90.60;;;;;;953816;146;27432;-78
2022/12/04 12:21:15;;;;;;;10.90;7.73;;;7.50;90.60;;;;;;960348;145;27478;-78
2022/12/04 12:23:50;;;;;;;10.87;8.83;;;7.50;90.50;;;;;;959072;147;27267;-77
2022/12/04 12:26:17;;;;;;;10.87;8.43;;;7.50;90.50;;;;;;958455;145;27447;-77
2022/12/04 12:29:09;;;;;;;13.03;9.93;;;7.50;90.40;;;;;;961828;145;27427;-77
2022/12/04 12:31:34;;;;;;;14.77;11.30;;;7.50;90.40;;;;;;957457;145;27337;-77
2022/12/04 12:34:03;;;;;;;56.87;43.27;;;7.50;90.30;;;;;;942028;148;27312;-77
2022/12/04 12:36:30;;;;;;;17.43;12.50;;;7.50;90.30;;;;;;959719;145;27301;-77
2022/12/04 12:38:57;;;;;;;12.83;9.70;;;7.50;90.20;;;;;;957944;145;28077;-77
2022/12/04 12:41:23;;;;;;;11.23;8.77;;;7.50;90.20;;;;;;958916;145;27469;-77
2022/12/04 12:43:52;;;;;;;18.90;13.90;;;7.50;90.30;;;;;;960323;145;27242;-77
2022/12/04 12:46:26;;;;;;;13.00;10.57;;;7.50;90.40;;;;;;948225;147;27409;-78
2022/12/04 12:49:10;;;;;;;14.77;11.73;;;7.50;90.30;;;;;;956211;145;27434;-78
2022/12/04 12:51:39;;;;;;;12.33;9.70;;;7.50;90.20;;;;;;943958;148;27404;-79
2022/12/04 12:54:11;;;;;;;12.90;10.73;;;7.50;90.10;;;;;;954623;145;27345;-79
2022/12/04 12:56:38;;;;;;;11.77;10.17;;;7.60;90.20;;;;;;946378;147;27454;-78
2022/12/04 12:59:04;;;;;;;11.23;9.17;;;7.50;90.00;;;;;;941241;150;27342;-78
2022/12/04 13:01:55;;;;;;;13.00;9.87;;;7.50;90.00;;;;;;949721;147;27481;-78
2022/12/04 13:04:22;;;;;;;12.87;9.10;;;7.50;90.00;;;;;;960494;145;28155;-78
2022/12/04 13:06:48;;;;;;;12.30;9.83;;;7.50;90.10;;;;;;939362;148;27400;-78
2022/12/04 13:09:24;;;;;;;12.43;10.30;;;7.50;90.00;;;;;;961253;145;27382;-78
2022/12/04 13:11:47;;;;;;;11.10;8.80;;;7.60;90.00;;;;;;941960;147;27436;-78
2022/12/04 13:14:14;;;;;;;13.47;11.07;;;7.50;89.80;;;;;;959859;145;27363;-78